Time;durP1;ratioP1;P1;durP2;ratioP2;P2;SDS_P1;SDS_P2;PMS_P1;PMS_P2;Temp;Humidity;BMP_temperature;BMP_pressure;BME280_temperature;BME280_humidity;BME280_pressure;Samples;Min_cycle;Max_cycle;Signal;HPM_P1;HPM_P2
2023/01/15 00:00:50;;;;;;;5.80;2.45;;;19.30;68.70;;;;;;5032176;28;20029;-68
2023/01/15 00:03:16;;;;;;;5.10;2.50;;;19.20;68.80;;;;;;5031995;28;20496;-68
2023/01/15 00:05:41;;;;;;;4.40;2.25;;;19.20;68.80;;;;;;5033214;28;20029;-68
2023/01/15 00:08:07;;;;;;;5.18;2.63;;;19.10;69.00;;;;;;5033096;28;20022;-68
2023/01/15 00:10:33;;;;;;;5.10;2.42;;;19.10;69.20;;;;;;5033470;28;20026;-68
2023/01/15 00:12:59;;;;;;;7.80;3.13;;;19.10;69.20;;;;;;5031969;28;20017;-68
2023/01/15 00:15:24;;;;;;;4.53;2.50;;;19.00;69.40;;;;;;5033242;28;20494;-68
2023/01/15 00:17:50;;;;;;;4.32;2.25;;;19.00;69.40;;;;;;5032926;28;20056;-68
2023/01/15 00:20:16;;;;;;;5.75;2.45;;;19.00;69.40;;;;;;5033009;28;20025;-68
2023/01/15 00:22:41;;;;;;;3.80;2.20;;;18.90;69.40;;;;;;5033449;28;20049;-68
2023/01/15 00:27:53;;;;;;;6.60;2.85;;;18.80;69.50;;;;;;5032065;28;20028;-68
2023/01/15 00:30:18;;;;;;;4.00;2.30;;;18.80;69.50;;;;;;5032702;28;20104;-68
2023/01/15 00:32:44;;;;;;;3.80;2.30;;;18.80;69.50;;;;;;5031576;28;20029;-68
2023/01/15 00:35:14;;;;;;;4.28;2.30;;;18.80;69.50;;;;;;5030910;28;20029;-67
2023/01/15 00:37:39;;;;;;;4.40;2.15;;;18.70;69.50;;;;;;5020360;28;20507;-67
2023/01/15 00:40:05;;;;;;;4.18;2.28;;;18.70;69.60;;;;;;5011795;28;20029;-68
2023/01/15 00:42:31;;;;;;;3.70;2.05;;;18.70;69.70;;;;;;5030936;28;20025;-67
2023/01/15 00:44:57;;;;;;;3.13;2.25;;;18.60;69.70;;;;;;5032481;28;20573;-68
2023/01/15 00:47:22;;;;;;;3.00;2.13;;;18.60;69.90;;;;;;5032496;28;20519;-67
2023/01/15 00:49:49;;;;;;;3.70;2.15;;;18.60;70.00;;;;;;5032598;28;20480;-67
2023/01/15 00:52:14;;;;;;;4.13;2.05;;;18.50;70.00;;;;;;5031274;28;20014;-67
2023/01/15 00:54:40;;;;;;;3.50;1.83;;;18.50;70.10;;;;;;5032684;28;20037;-67
2023/01/15 00:57:06;;;;;;;5.55;2.10;;;18.50;70.00;;;;;;5032482;28;20499;-67
2023/01/15 00:59:31;;;;;;;4.18;2.00;;;18.50;70.10;;;;;;5032454;28;20404;-67
2023/01/15 01:01:57;;;;;;;5.55;2.58;;;18.50;70.20;;;;;;5031102;28;20022;-68
2023/01/15 01:04:23;;;;;;;4.75;1.88;;;18.40;70.20;;;;;;5032188;28;20046;-67
2023/01/15 01:06:49;;;;;;;3.42;2.05;;;18.40;70.20;;;;;;5032494;28;20068;-68
2023/01/15 01:09:15;;;;;;;4.40;1.83;;;18.40;70.30;;;;;;5032181;28;20380;-68
2023/01/15 01:11:41;;;;;;;4.85;2.25;;;18.30;70.30;;;;;;5032438;28;20021;-67
2023/01/15 01:14:08;;;;;;;4.18;2.20;;;18.30;70.00;;;;;;5030718;28;20021;-68
2023/01/15 01:16:36;;;;;;;6.30;2.15;;;18.20;69.70;;;;;;5031312;28;20061;-67
2023/01/15 01:19:04;;;;;;;4.05;1.98;;;18.10;70.40;;;;;;5031018;28;20871;-67
2023/01/15 01:21:30;;;;;;;3.72;1.90;;;18.10;70.40;;;;;;5030949;28;20511;-68
2023/01/15 01:23:57;;;;;;;4.63;1.90;;;18.10;70.10;;;;;;5030969;28;20059;-67
2023/01/15 01:26:23;;;;;;;6.10;2.17;;;18.10;71.20;;;;;;5032192;28;20025;-68
2023/01/15 01:28:50;;;;;;;3.05;1.80;;;18.10;70.40;;;;;;5031851;28;20128;-68
2023/01/15 01:31:16;;;;;;;4.50;1.95;;;18.10;70.50;;;;;;5030740;28;20447;-68
2023/01/15 01:33:41;;;;;;;2.55;1.92;;;18.10;70.50;;;;;;5032226;28;20060;-68
2023/01/15 01:36:07;;;;;;;3.50;1.70;;;18.10;70.60;;;;;;5032076;28;20030;-68
2023/01/15 01:38:32;;;;;;;3.30;2.13;;;18.00;70.70;;;;;;5013649;28;20034;-68
2023/01/15 01:40:58;;;;;;;2.53;1.45;;;18.00;70.70;;;;;;5012195;28;20101;-68
2023/01/15 01:43:25;;;;;;;2.47;1.75;;;18.00;70.70;;;;;;5012087;28;20022;-68
2023/01/15 01:45:51;;;;;;;2.72;1.73;;;18.00;70.90;;;;;;5012284;28;20563;-68
2023/01/15 01:48:17;;;;;;;3.22;1.92;;;18.00;71.00;;;;;;5015949;28;20109;-68
2023/01/15 01:50:43;;;;;;;4.20;2.13;;;17.90;71.10;;;;;;5014856;28;20026;-67
2023/01/15 01:53:13;;;;;;;2.78;1.98;;;17.90;71.20;;;;;;5015039;28;20029;-67
2023/01/15 01:55:39;;;;;;;3.67;1.42;;;17.90;71.30;;;;;;5014878;28;20026;-68
2023/01/15 01:58:06;;;;;;;3.97;1.85;;;17.90;71.50;;;;;;5014585;28;20041;-67
2023/01/15 02:00:32;;;;;;;3.22;1.70;;;17.80;71.40;;;;;;5014740;28;20022;-67
2023/01/15 02:02:58;;;;;;;4.13;2.00;;;17.80;71.50;;;;;;5014643;28;20053;-67
2023/01/15 02:05:34;;;;;;;2.28;1.75;;;17.80;71.60;;;;;;5014547;28;20033;-67
2023/01/15 02:08:00;;;;;;;3.78;1.65;;;17.80;71.70;;;;;;5014799;28;20030;-68
2023/01/15 02:10:26;;;;;;;3.05;1.75;;;17.80;71.80;;;;;;5015604;28;20028;-68
2023/01/15 02:12:58;;;;;;;2.45;1.63;;;17.70;71.80;;;;;;5014408;28;20037;-68
2023/01/15 02:15:28;;;;;;;3.88;1.80;;;17.70;71.90;;;;;;5014242;28;20029;-67
2023/01/15 02:17:53;;;;;;;3.78;1.63;;;17.70;72.00;;;;;;5014570;28;20030;-68
2023/01/15 02:20:29;;;;;;;3.05;1.63;;;17.70;72.00;;;;;;5015268;28;20394;-68
2023/01/15 02:23:15;;;;;;;4.32;1.60;;;17.70;72.10;;;;;;5014239;28;20571;-68
2023/01/15 02:26:22;;;;;;;2.10;1.70;;;17.70;72.10;;;;;;5014300;28;20033;-68
2023/01/15 02:28:48;;;;;;;3.55;1.77;;;17.70;72.30;;;;;;5017045;28;20120;-68
2023/01/15 02:31:20;;;;;;;3.63;1.60;;;17.70;72.40;;;;;;5033933;28;20145;-68
2023/01/15 02:33:57;;;;;;;3.93;1.97;;;17.70;72.20;;;;;;5033976;28;20108;-68
2023/01/15 02:36:23;;;;;;;2.88;1.63;;;17.60;72.30;;;;;;5032795;28;20084;-68
2023/01/15 02:38:50;;;;;;;2.55;1.40;;;17.60;72.50;;;;;;5014073;28;20478;-68
2023/01/15 02:41:17;;;;;;;2.80;1.70;;;17.60;73.60;;;;;;5013810;28;20148;-68
2023/01/15 02:43:50;;;;;;;2.08;1.10;;;17.60;72.50;;;;;;5014040;28;20022;-68
2023/01/15 02:46:16;;;;;;;1.88;1.27;;;17.60;72.50;;;;;;5013686;28;20026;-68
2023/01/15 02:48:43;;;;;;;2.47;1.52;;;17.50;72.60;;;;;;5014109;28;20021;-68
2023/01/15 02:51:13;;;;;;;1.75;1.23;;;17.50;72.50;;;;;;5013605;28;20400;-67
2023/01/15 02:53:41;;;;;;;2.47;1.65;;;17.50;72.70;;;;;;5013846;28;20111;-67
2023/01/15 02:56:14;;;;;;;4.55;1.83;;;17.50;73.10;;;;;;5013445;28;20025;-67
2023/01/15 02:58:41;;;;;;;3.10;1.48;;;17.50;73.00;;;;;;5013094;28;20021;-67
2023/01/15 03:01:13;;;;;;;3.40;1.77;;;17.50;73.20;;;;;;5013613;28;20032;-67
2023/01/15 03:03:51;;;;;;;2.42;1.30;;;17.50;73.20;;;;;;5013536;28;20056;-67
2023/01/15 03:06:54;;;;;;;2.38;1.42;;;17.40;73.10;;;;;;5013464;28;20030;-67
2023/01/15 03:09:20;;;;;;;2.60;1.25;;;17.40;73.20;;;;;;5013480;28;20385;-67
2023/01/15 03:11:49;;;;;;;2.20;1.35;;;17.40;73.20;;;;;;5013237;28;20022;-67
2023/01/15 03:14:46;;;;;;;3.15;1.50;;;17.40;73.20;;;;;;5013181;28;20476;-68
2023/01/15 03:17:18;;;;;;;1.67;1.25;;;17.40;73.30;;;;;;5002311;28;20042;-68
2023/01/15 03:19:49;;;;;;;3.45;1.52;;;17.40;73.40;;;;;;5013360;28;20032;-68
2023/01/15 03:22:35;;;;;;;2.38;1.42;;;17.30;73.30;;;;;;5013188;28;20183;-68
2023/01/15 03:25:04;;;;;;;1.73;1.40;;;17.40;73.30;;;;;;5012737;28;20064;-68
2023/01/15 03:27:29;;;;;;;2.70;1.25;;;17.30;73.30;;;;;;5012788;28;20160;-68
2023/01/15 03:30:03;;;;;;;2.65;1.45;;;17.30;73.20;;;;;;5025632;28;20112;-67
2023/01/15 03:32:30;;;;;;;1.90;1.40;;;17.30;73.30;;;;;;5032790;28;20033;-68
2023/01/15 03:34:55;;;;;;;1.52;1.35;;;17.30;73.40;;;;;;5032804;28;20621;-68
2023/01/15 03:37:22;;;;;;;3.30;1.50;;;17.30;73.40;;;;;;5025260;28;20101;-68
2023/01/15 03:39:48;;;;;;;2.88;1.30;;;17.20;73.50;;;;;;5012875;28;20021;-68
2023/01/15 03:42:38;;;;;;;2.20;1.33;;;17.20;73.40;;;;;;5012769;28;20521;-68
2023/01/15 03:45:21;;;;;;;3.97;1.52;;;17.20;73.50;;;;;;5013977;28;20496;-68
2023/01/15 03:48:33;;;;;;;2.97;1.40;;;17.20;73.60;;;;;;5012677;28;20101;-68
2023/01/15 03:51:23;;;;;;;3.83;1.50;;;17.20;73.60;;;;;;5008238;28;20038;-68
2023/01/15 03:53:58;;;;;;;1.60;1.08;;;17.20;73.60;;;;;;5011471;28;20064;-68
2023/01/15 03:56:34;;;;;;;2.20;1.45;;;17.20;73.70;;;;;;4978928;28;20045;-68
2023/01/15 03:59:20;;;;;;;2.72;1.27;;;17.20;73.70;;;;;;4979941;28;20118;-68
2023/01/15 04:01:46;;;;;;;2.00;1.42;;;17.10;73.70;;;;;;4995187;28;20122;-68
2023/01/15 04:04:12;;;;;;;2.20;1.13;;;17.10;73.80;;;;;;4978737;28;20049;-68
2023/01/15 04:06:38;;;;;;;1.75;1.15;;;17.10;73.70;;;;;;4995194;28;20026;-68
2023/01/15 04:09:05;;;;;;;2.13;1.13;;;17.10;73.80;;;;;;4977957;28;20033;-68
2023/01/15 04:11:30;;;;;;;3.85;1.15;;;17.10;73.80;;;;;;4978840;28;20117;-70
2023/01/15 04:13:56;;;;;;;2.00;1.30;;;17.10;74.00;;;;;;4995078;28;20113;-70
2023/01/15 04:16:27;;;;;;;1.30;1.20;;;17.10;74.00;;;;;;4994680;28;20405;-69
2023/01/15 04:18:53;;;;;;;1.98;1.27;;;17.10;74.10;;;;;;4995071;28;20060;-69
2023/01/15 04:21:19;;;;;;;2.63;1.20;;;17.00;74.00;;;;;;4994865;28;20437;-69
2023/01/15 04:23:45;;;;;;;2.38;1.30;;;17.00;74.00;;;;;;4994516;28;20034;-69
2023/01/15 04:26:11;;;;;;;1.48;1.25;;;17.00;74.00;;;;;;5011121;28;20484;-70
2023/01/15 04:28:36;;;;;;;1.90;1.02;;;17.00;74.00;;;;;;5012678;28;20536;-69
2023/01/15 04:31:02;;;;;;;3.15;1.33;;;17.00;74.00;;;;;;5032098;28;20041;-70
2023/01/15 04:33:28;;;;;;;2.45;1.10;;;17.00;74.00;;;;;;5031654;28;20403;-69
2023/01/15 04:35:53;;;;;;;2.65;1.20;;;17.00;74.00;;;;;;5032850;28;20021;-70
2023/01/15 04:38:19;;;;;;;3.08;1.20;;;17.00;74.00;;;;;;5015855;28;20037;-70
2023/01/15 04:46:13;;;;;;;1.15;0.82;;;16.90;74.10;;;;;;5011837;28;20540;-70
2023/01/15 04:48:39;;;;;;;1.70;1.15;;;16.90;74.10;;;;;;5012022;28;20018;-70
2023/01/15 04:51:05;;;;;;;1.65;0.98;;;16.90;74.10;;;;;;5011859;28;20492;-67
2023/01/15 04:53:30;;;;;;;2.17;1.27;;;16.90;74.40;;;;;;5011395;28;20064;-67
2023/01/15 04:56:03;;;;;;;3.28;1.00;;;16.90;74.20;;;;;;5011684;28;20026;-67
2023/01/15 04:58:28;;;;;;;3.97;1.08;;;16.90;74.20;;;;;;5011525;28;20014;-68
2023/01/15 05:00:54;;;;;;;4.65;0.95;;;16.90;75.20;;;;;;5012729;28;20088;-68
2023/01/15 05:03:20;;;;;;;4.40;1.15;;;16.90;74.20;;;;;;5011115;28;20042;-67
2023/01/15 05:05:45;;;;;;;3.30;1.40;;;16.90;74.30;;;;;;5012546;28;20445;-67
2023/01/15 05:08:11;;;;;;;3.00;1.00;;;16.90;74.40;;;;;;5012507;28;20026;-67
2023/01/15 05:10:37;;;;;;;2.45;1.17;;;16.80;74.40;;;;;;5023038;28;20038;-67
2023/01/15 05:13:02;;;;;;;2.80;1.25;;;16.80;74.40;;;;;;5030397;28;20480;-68
2023/01/15 05:15:28;;;;;;;1.75;1.20;;;16.80;74.50;;;;;;5040274;28;20464;-68
2023/01/15 05:17:53;;;;;;;1.90;1.15;;;16.80;74.50;;;;;;5050475;28;20017;-68
2023/01/15 05:20:19;;;;;;;2.95;1.20;;;16.80;74.40;;;;;;5033448;28;20021;-68
2023/01/15 05:22:45;;;;;;;3.33;1.00;;;16.80;74.50;;;;;;5034919;28;20022;-67
2023/01/15 05:25:10;;;;;;;2.33;1.00;;;16.80;74.50;;;;;;5035024;28;20021;-67
2023/01/15 05:27:36;;;;;;;2.17;1.17;;;16.80;74.50;;;;;;5040216;28;20308;-68
2023/01/15 05:30:01;;;;;;;2.85;1.05;;;16.80;74.60;;;;;;5041194;28;20021;-68
2023/01/15 05:32:28;;;;;;;2.50;1.13;;;16.80;74.60;;;;;;5049986;28;20159;-67
2023/01/15 05:34:54;;;;;;;3.00;1.10;;;16.80;74.60;;;;;;5066740;28;20017;-67
2023/01/15 05:37:20;;;;;;;1.02;0.73;;;16.70;74.40;;;;;;5035959;28;20079;-67
2023/01/15 05:39:45;;;;;;;1.85;1.08;;;16.70;74.40;;;;;;5036404;28;20105;-67
2023/01/15 05:42:11;;;;;;;2.05;1.05;;;16.70;74.20;;;;;;5036088;28;20025;-67
2023/01/15 05:44:36;;;;;;;1.75;0.93;;;16.60;74.30;;;;;;5035792;28;20025;-67
2023/01/15 05:47:04;;;;;;;2.60;1.08;;;16.70;74.40;;;;;;5036011;28;20025;-67
2023/01/15 05:49:30;;;;;;;3.28;1.00;;;16.60;74.10;;;;;;5034787;28;20021;-67
2023/01/15 05:51:56;;;;;;;3.33;1.10;;;16.60;74.30;;;;;;5034735;28;20361;-67
2023/01/15 05:54:24;;;;;;;3.53;1.00;;;16.60;74.30;;;;;;5034596;28;20052;-67
2023/01/15 05:56:49;;;;;;;1.88;1.00;;;16.60;74.30;;;;;;5035625;28;20472;-67
2023/01/15 05:59:16;;;;;;;2.08;1.23;;;16.60;74.30;;;;;;5035818;28;20056;-67
2023/01/15 06:01:41;;;;;;;1.85;0.85;;;16.60;74.30;;;;;;5034532;28;20029;-67
2023/01/15 06:04:07;;;;;;;3.28;0.95;;;16.60;74.40;;;;;;5035375;28;20050;-67
2023/01/15 06:06:34;;;;;;;1.83;0.90;;;16.60;74.30;;;;;;5035456;28;20057;-67
2023/01/15 06:09:00;;;;;;;3.60;0.98;;;16.60;74.30;;;;;;5034457;28;20020;-67
2023/01/15 06:11:25;;;;;;;2.65;1.00;;;16.60;74.40;;;;;;5034144;28;20025;-67
2023/01/15 06:13:51;;;;;;;2.65;1.25;;;16.60;74.50;;;;;;5035703;28;20408;-67
2023/01/15 06:16:17;;;;;;;1.30;1.00;;;16.50;74.40;;;;;;5034307;28;20025;-68
2023/01/15 06:18:43;;;;;;;1.58;0.90;;;16.50;74.40;;;;;;5027319;28;20022;-67
2023/01/15 06:21:10;;;;;;;1.65;0.70;;;16.50;74.40;;;;;;5014490;28;20018;-68
2023/01/15 06:23:36;;;;;;;2.20;0.80;;;16.50;74.40;;;;;;5015547;28;20026;-67
2023/01/15 06:26:03;;;;;;;1.10;0.70;;;16.50;74.40;;;;;;5015534;28;20022;-67
2023/01/15 06:28:28;;;;;;;1.83;0.80;;;16.50;74.40;;;;;;5014254;28;20080;-67
2023/01/15 06:30:54;;;;;;;3.03;1.02;;;16.50;74.40;;;;;;5014307;28;20018;-67
2023/01/15 06:33:20;;;;;;;1.55;0.90;;;16.50;74.40;;;;;;5013022;28;20026;-67
2023/01/15 06:35:46;;;;;;;4.55;1.10;;;16.50;74.40;;;;;;5014140;28;20021;-67
2023/01/15 06:38:11;;;;;;;1.85;0.85;;;16.40;74.40;;;;;;5014170;28;20033;-67
2023/01/15 06:40:37;;;;;;;2.05;1.20;;;16.50;74.40;;;;;;5014038;28;20093;-67
2023/01/15 06:48:31;;;;;;;1.65;0.70;;;16.40;74.40;;;;;;5013962;28;20037;-67
2023/01/15 06:50:56;;;;;;;2.55;0.90;;;16.40;74.40;;;;;;5013799;28;20034;-68
2023/01/15 06:53:22;;;;;;;2.33;0.95;;;16.40;74.30;;;;;;5013931;28;20051;-67
2023/01/15 06:55:48;;;;;;;2.60;0.80;;;16.40;74.40;;;;;;5013790;28;20022;-67
2023/01/15 06:58:13;;;;;;;2.35;1.20;;;16.40;74.50;;;;;;5013844;28;20030;-67
2023/01/15 07:00:43;;;;;;;2.35;0.80;;;16.30;74.50;;;;;;5013858;28;20022;-68
2023/01/15 07:03:11;;;;;;;2.53;1.15;;;16.40;74.60;;;;;;5013596;28;20471;-67
2023/01/15 07:05:40;;;;;;;2.67;0.82;;;16.40;74.60;;;;;;5013490;28;20488;-67
2023/01/15 07:08:05;;;;;;;2.45;0.88;;;16.30;74.50;;;;;;5013426;28;20096;-67
2023/01/15 07:10:34;;;;;;;2.58;1.08;;;16.40;74.60;;;;;;5017787;28;20487;-67
2023/01/15 07:12:59;;;;;;;1.90;1.05;;;16.30;74.60;;;;;;5016929;28;20369;-67
2023/01/15 07:15:25;;;;;;;4.57;1.30;;;16.30;74.60;;;;;;5034854;28;20079;-68
2023/01/15 07:17:55;;;;;;;2.33;0.90;;;16.30;74.60;;;;;;5034320;28;20021;-67
2023/01/15 07:20:20;;;;;;;1.73;0.80;;;16.30;74.60;;;;;;5034363;28;20036;-67
2023/01/15 07:22:50;;;;;;;2.75;0.98;;;16.30;74.60;;;;;;5034064;28;20118;-67
2023/01/15 07:25:16;;;;;;;2.30;0.85;;;16.30;74.50;;;;;;5016439;28;20400;-67
2023/01/15 07:27:41;;;;;;;2.72;0.90;;;16.20;74.50;;;;;;5016403;28;20029;-67
2023/01/15 07:30:07;;;;;;;1.73;0.90;;;16.20;74.50;;;;;;5034083;28;20037;-68
2023/01/15 07:32:33;;;;;;;2.10;0.90;;;16.20;74.40;;;;;;5032701;28;20044;-67
2023/01/15 07:34:59;;;;;;;1.63;0.80;;;16.20;74.50;;;;;;5032974;28;20480;-67
2023/01/15 07:37:24;;;;;;;1.35;0.75;;;16.20;74.50;;;;;;5032851;28;20426;-67
2023/01/15 07:39:50;;;;;;;0.80;0.70;;;16.20;74.50;;;;;;5033816;28;20030;-68
2023/01/15 07:50:28;;;;;;;1.63;0.82;;;16.20;74.60;;;;;;5032759;28;20075;-67
2023/01/15 07:52:54;;;;;;;2.10;1.05;;;16.20;74.60;;;;;;5015888;28;20021;-67
2023/01/15 07:55:20;;;;;;;1.98;0.80;;;16.20;74.70;;;;;;5033829;28;20013;-68
2023/01/15 07:57:45;;;;;;;1.20;0.70;;;16.20;74.80;;;;;;4999555;28;20515;-68
2023/01/15 08:00:18;;;;;;;2.08;0.85;;;16.10;74.80;;;;;;5033358;28;20472;-67
2023/01/15 08:02:44;;;;;;;0.95;0.82;;;16.20;74.80;;;;;;5033321;28;20042;-67
2023/01/15 08:05:11;;;;;;;2.38;0.60;;;16.10;74.80;;;;;;5033340;28;20026;-68
2023/01/15 08:07:40;;;;;;;2.03;0.75;;;16.10;74.80;;;;;;5031988;28;20017;-68
2023/01/15 08:10:07;;;;;;;1.67;0.65;;;16.10;74.90;;;;;;5032491;28;20036;-68
2023/01/15 08:15:17;;;;;;;0.80;0.63;;;16.10;74.80;;;;;;5033158;28;20036;-67
2023/01/15 08:17:49;;;;;;;3.03;0.80;;;16.10;74.80;;;;;;5033045;28;20116;-67
2023/01/15 08:20:19;;;;;;;;;;;16.10;74.80;;;;;;5013464;28;20022;-67
2023/01/15 08:22:44;;;;;;;1.30;0.60;;;16.10;74.80;;;;;;5045132;28;19951;-68
2023/01/15 08:25:12;;;;;;;3.10;0.77;;;16.10;74.80;;;;;;5012237;28;20069;-67
2023/01/15 08:27:39;;;;;;;3.42;0.80;;;16.10;74.80;;;;;;5011970;28;20547;-67
2023/01/15 08:30:05;;;;;;;1.50;0.70;;;16.00;74.80;;;;;;5011867;28;20068;-67
2023/01/15 08:32:31;;;;;;;1.35;0.70;;;16.10;74.90;;;;;;5013486;28;20026;-68
2023/01/15 08:34:57;;;;;;;0.52;0.50;;;16.10;75.00;;;;;;5011982;28;20536;-68
2023/01/15 08:37:22;;;;;;;3.75;1.02;;;16.10;75.00;;;;;;5012030;28;20492;-68
2023/01/15 08:39:50;;;;;;;1.77;0.90;;;16.00;74.90;;;;;;5013342;28;20030;-67
2023/01/15 08:42:16;;;;;;;2.97;0.85;;;16.10;74.80;;;;;;5012956;28;20028;-67
2023/01/15 08:44:41;;;;;;;3.13;0.82;;;16.10;74.90;;;;;;5011650;28;20030;-68
2023/01/15 08:47:07;;;;;;;1.55;0.70;;;16.00;74.90;;;;;;5012761;28;20017;-67
2023/01/15 08:49:33;;;;;;;1.75;0.70;;;16.00;74.90;;;;;;5013055;28;20030;-67
2023/01/15 08:51:59;;;;;;;3.22;0.80;;;16.00;74.90;;;;;;5012834;28;20026;-67
2023/01/15 08:54:25;;;;;;;1.83;0.80;;;16.00;74.90;;;;;;5012831;28;20511;-68
2023/01/15 08:56:51;;;;;;;1.73;0.60;;;16.00;74.90;;;;;;5012262;28;20030;-67
2023/01/15 08:59:16;;;;;;;1.65;0.70;;;16.00;74.90;;;;;;5011539;28;20083;-67
2023/01/15 09:01:43;;;;;;;1.13;0.70;;;16.00;74.90;;;;;;5012742;28;20014;-67
2023/01/15 09:04:15;;;;;;;1.63;0.70;;;16.00;74.90;;;;;;5012581;28;20054;-67
2023/01/15 09:06:41;;;;;;;0.83;0.40;;;16.00;74.90;;;;;;5011472;28;20028;-67
2023/01/15 09:09:07;;;;;;;2.10;0.70;;;16.00;74.90;;;;;;5011492;28;20394;-67
2023/01/15 09:11:32;;;;;;;1.63;0.75;;;16.00;74.90;;;;;;5022912;28;20022;-68
2023/01/15 09:13:58;;;;;;;1.13;0.70;;;16.00;75.00;;;;;;5032011;28;20434;-68
2023/01/15 09:16:26;;;;;;;1.30;0.73;;;15.90;75.00;;;;;;5032411;28;20025;-68
2023/01/15 09:18:52;;;;;;;1.88;0.60;;;15.90;74.90;;;;;;5023254;28;20499;-68
2023/01/15 09:21:18;;;;;;;1.70;0.88;;;15.90;74.90;;;;;;5011457;28;20022;-67
2023/01/15 09:23:43;;;;;;;1.23;0.60;;;15.90;74.90;;;;;;5012435;28;20022;-67
2023/01/15 09:26:27;;;;;;;1.52;0.60;;;15.90;74.90;;;;;;5012351;28;20065;-67
2023/01/15 09:28:53;;;;;;;1.10;0.70;;;15.90;75.00;;;;;;5011123;28;20049;-67
2023/01/15 09:31:19;;;;;;;1.48;0.52;;;15.90;75.00;;;;;;5012522;28;20026;-67
2023/01/15 09:33:45;;;;;;;1.27;0.80;;;15.90;75.00;;;;;;5012332;28;20046;-67
2023/01/15 09:36:16;;;;;;;1.30;0.70;;;15.90;75.10;;;;;;5012458;28;20489;-68
2023/01/15 09:38:41;;;;;;;1.70;0.70;;;15.80;75.00;;;;;;5012336;28;20022;-67
2023/01/15 09:42:04;;;;;;;1.65;0.85;;;15.90;75.10;;;;;;5011181;28;20435;-67
2023/01/15 09:44:26;;;;;;;1.30;0.63;;;15.90;75.00;;;;;;5010914;28;20033;-67
2023/01/15 09:47:12;;;;;;;0.73;0.60;;;15.80;75.00;;;;;;5011022;28;20021;-67
2023/01/15 09:49:52;;;;;;;1.55;0.60;;;15.80;75.00;;;;;;5012318;28;20041;-67
2023/01/15 09:52:48;;;;;;;1.35;0.70;;;15.80;75.10;;;;;;5011055;28;20018;-67
2023/01/15 09:55:27;;;;;;;1.40;0.65;;;15.80;75.10;;;;;;5012347;28;20470;-67
2023/01/15 09:57:55;;;;;;;3.08;0.80;;;15.80;75.20;;;;;;5010849;28;20026;-69
2023/01/15 10:00:25;;;;;;;1.13;0.60;;;15.80;75.20;;;;;;5010918;28;20105;-69
2023/01/15 10:03:09;;;;;;;1.23;0.77;;;15.80;75.10;;;;;;5010624;28;20057;-69
2023/01/15 10:05:43;;;;;;;1.02;0.43;;;15.80;75.20;;;;;;5011979;28;20033;-69
2023/01/15 10:08:20;;;;;;;1.55;0.80;;;15.80;75.20;;;;;;5014150;28;20022;-69
2023/01/15 10:11:11;;;;;;;1.42;0.70;;;15.80;75.40;;;;;;5019450;28;20076;-69
2023/01/15 10:13:47;;;;;;;2.72;0.70;;;15.70;75.30;;;;;;5025269;28;20045;-69
2023/01/15 10:16:22;;;;;;;1.60;0.68;;;15.80;75.50;;;;;;5014658;28;20022;-69
2023/01/15 10:18:48;;;;;;;1.30;0.50;;;15.80;75.20;;;;;;5005891;28;20492;-69
2023/01/15 10:21:50;;;;;;;1.10;0.50;;;15.80;75.00;;;;;;5034329;28;20024;-69
2023/01/15 10:24:36;;;;;;;1.05;0.50;;;15.70;74.70;;;;;;5034147;28;20026;-67
2023/01/15 10:27:06;;;;;;;1.85;0.55;;;15.70;74.60;;;;;;5035021;28;20080;-67
2023/01/15 10:29:45;;;;;;;1.55;0.50;;;15.70;74.60;;;;;;5018138;28;20068;-67
2023/01/15 10:32:52;;;;;;;3.53;0.70;;;15.70;74.50;;;;;;5018052;28;20024;-67
2023/01/15 10:35:39;;;;;;;3.42;0.70;;;15.70;74.60;;;;;;5035114;28;20036;-67
2023/01/15 10:38:14;;;;;;;1.55;0.57;;;15.70;74.60;;;;;;5035076;28;20500;-67
2023/01/15 10:40:57;;;;;;;2.08;0.43;;;15.70;74.60;;;;;;5036943;28;20112;-67
2023/01/15 10:43:36;;;;;;;1.95;0.95;;;15.60;74.60;;;;;;5053354;28;20391;-67
2023/01/15 10:46:13;;;;;;;2.05;0.77;;;15.70;74.60;;;;;;5036866;28;20021;-67
2023/01/15 10:48:43;;;;;;;2.10;0.70;;;15.70;74.70;;;;;;5052075;28;20066;-67
2023/01/15 10:51:14;;;;;;;1.75;1.10;;;15.70;74.80;;;;;;5051956;28;20017;-67
2023/01/15 10:53:53;;;;;;;3.35;0.93;;;15.70;74.80;;;;;;5051888;28;20017;-67
2023/01/15 10:56:40;;;;;;;8.35;0.70;;;15.70;74.80;;;;;;5048058;28;20116;-67
2023/01/15 10:59:33;;;;;;;4.38;1.20;;;15.70;74.90;;;;;;5031466;28;20056;-69
2023/01/15 11:01:58;;;;;;;4.35;0.98;;;15.70;75.60;;;;;;5031532;28;20083;-69
2023/01/15 11:04:26;;;;;;;5.18;0.95;;;15.70;76.60;;;;;;5031069;28;20049;-69
2023/01/15 11:06:51;;;;;;;3.53;0.85;;;15.70;77.20;;;;;;5031601;28;20033;-67
2023/01/15 11:09:22;;;;;;;3.28;0.88;;;15.70;77.80;;;;;;5031761;28;20392;-67
2023/01/15 11:20:27;;;;;;;4.00;0.90;;;15.80;78.70;;;;;;5013820;28;20420;-67
2023/01/15 11:22:55;;;;;;;3.60;0.90;;;15.80;78.80;;;;;;5014484;28;20032;-67
2023/01/15 11:25:28;;;;;;;4.03;0.90;;;15.80;78.60;;;;;;5013071;28;20096;-67
2023/01/15 11:27:54;;;;;;;5.28;0.98;;;15.80;78.80;;;;;;5013298;28;20022;-67
2023/01/15 11:30:31;;;;;;;5.63;1.52;;;15.80;78.70;;;;;;5013026;28;20022;-67
2023/01/15 11:32:59;;;;;;;2.90;0.70;;;15.80;78.90;;;;;;5012981;28;20497;-67
2023/01/15 11:35:25;;;;;;;2.42;0.95;;;15.80;78.70;;;;;;5013124;28;20025;-67
2023/01/15 11:38:13;;;;;;;2.83;0.70;;;15.80;78.70;;;;;;5013887;28;20489;-67
2023/01/15 11:40:49;;;;;;;2.40;0.77;;;15.80;78.70;;;;;;5012976;28;20058;-67
2023/01/15 11:51:59;;;;;;;3.25;0.70;;;15.80;79.70;;;;;;5013335;28;20504;-69
2023/01/15 11:54:25;;;;;;;4.93;1.42;;;15.80;78.60;;;;;;5012497;28;20038;-69
2023/01/15 11:56:50;;;;;;;2.30;0.90;;;15.80;78.50;;;;;;5012648;28;20097;-69
2023/01/15 11:59:18;;;;;;;5.93;0.80;;;15.80;78.50;;;;;;5012555;28;20037;-69
2023/01/15 12:01:56;;;;;;;2.90;1.00;;;15.80;78.30;;;;;;5012705;28;20033;-69
2023/01/15 12:04:31;;;;;;;2.72;1.00;;;15.80;78.20;;;;;;5012358;28;20057;-69
2023/01/15 12:06:57;;;;;;;2.38;0.80;;;15.80;78.30;;;;;;5012185;28;20022;-69
2023/01/15 12:09:29;;;;;;;1.85;0.77;;;15.90;78.30;;;;;;5013673;28;20496;-69
2023/01/15 12:12:16;;;;;;;2.72;1.00;;;15.80;78.20;;;;;;5028027;28;20484;-69
2023/01/15 12:15:02;;;;;;;2.63;0.80;;;15.80;78.00;;;;;;5033185;28;20057;-69
2023/01/15 12:17:46;;;;;;;2.83;0.82;;;15.80;78.00;;;;;;5033300;28;20030;-69
2023/01/15 12:20:25;;;;;;;1.88;0.80;;;15.80;77.90;;;;;;5014378;28;20062;-69
2023/01/15 12:23:25;;;;;;;4.30;1.23;;;15.80;77.90;;;;;;5012138;28;20010;-69
2023/01/15 12:26:02;;;;;;;2.47;0.60;;;15.80;77.70;;;;;;5013160;28;20030;-69
2023/01/15 12:28:32;;;;;;;3.38;0.70;;;15.80;77.60;;;;;;5012259;28;20404;-69
2023/01/15 12:31:05;;;;;;;2.67;0.70;;;15.80;77.60;;;;;;5011266;28;20022;-69
2023/01/15 12:33:40;;;;;;;;;;;15.80;77.70;;;;;;5012457;28;20072;-69
2023/01/15 12:36:19;;;;;;;1.42;0.50;;;15.80;77.70;;;;;;5012874;28;19906;-69
2023/01/15 12:38:49;;;;;;;1.45;0.60;;;15.80;77.60;;;;;;5012109;28;20022;-69
2023/01/15 12:44:59;;;;;;;3.38;1.02;;;15.80;77.50;;;;;;5011772;28;20040;-67
2023/01/15 12:47:31;;;;;;;2.65;1.00;;;15.80;77.60;;;;;;5011938;28;20018;-67
2023/01/15 12:50:15;;;;;;;1.80;0.73;;;15.80;77.40;;;;;;5011769;28;20559;-67
2023/01/15 12:52:42;;;;;;;1.33;0.50;;;15.80;77.40;;;;;;5013120;28;20072;-67
2023/01/15 12:55:22;;;;;;;1.55;0.50;;;15.80;77.30;;;;;;5011511;28;20026;-67
2023/01/15 12:57:53;;;;;;;3.65;0.90;;;15.80;77.40;;;;;;5012967;28;20072;-67
2023/01/15 13:00:31;;;;;;;2.20;1.05;;;15.80;77.30;;;;;;5011581;28;20026;-67
2023/01/15 13:03:29;;;;;;;2.60;0.85;;;15.80;77.30;;;;;;5011506;28;20050;-67
2023/01/15 13:05:59;;;;;;;1.98;0.73;;;15.80;77.30;;;;;;5009472;28;20038;-67
2023/01/15 13:08:49;;;;;;;1.90;0.60;;;15.80;77.20;;;;;;5011448;28;20014;-67
2023/01/15 13:11:15;;;;;;;1.77;0.60;;;15.80;77.20;;;;;;5020564;28;20039;-67
2023/01/15 13:13:41;;;;;;;1.80;0.40;;;15.80;77.20;;;;;;5031150;28;20532;-67
2023/01/15 13:16:34;;;;;;;3.83;0.63;;;15.80;77.10;;;;;;5031190;28;20488;-67
2023/01/15 13:19:05;;;;;;;1.63;0.63;;;15.80;77.00;;;;;;5022340;28;20105;-67
2023/01/15 13:21:31;;;;;;;2.85;0.65;;;15.80;77.10;;;;;;5011434;28;20129;-67
2023/01/15 13:24:23;;;;;;;3.25;0.80;;;15.80;77.00;;;;;;5011560;28;20479;-67
2023/01/15 13:26:56;;;;;;;2.53;0.70;;;15.80;78.10;;;;;;5011739;28;20033;-67
2023/01/15 13:29:24;;;;;;;2.67;0.93;;;15.80;76.90;;;;;;5011187;28;20143;-67
2023/01/15 13:32:14;;;;;;;1.88;0.90;;;15.80;76.80;;;;;;5012557;28;20022;-67
2023/01/15 13:35:13;;;;;;;2.25;0.70;;;15.80;76.70;;;;;;5011391;28;20041;-67
2023/01/15 13:37:48;;;;;;;1.70;0.70;;;15.80;76.80;;;;;;5008675;28;20156;-67
2023/01/15 13:40:27;;;;;;;1.92;0.70;;;15.80;76.80;;;;;;5011217;28;20396;-67
2023/01/15 13:42:54;;;;;;;1.95;0.85;;;15.80;76.80;;;;;;5014085;28;20049;-67
2023/01/15 13:45:32;;;;;;;2.72;0.77;;;15.80;76.70;;;;;;5015049;28;20066;-67
2023/01/15 13:48:03;;;;;;;2.28;0.73;;;15.90;76.90;;;;;;5016491;28;20026;-67
2023/01/15 13:50:34;;;;;;;2.60;0.70;;;15.80;76.80;;;;;;5015103;28;20076;-67